createdAt,value
2023-05-19T00:01:52.856Z,102978.97
2023-05-19T00:03:59.274Z,102975.47
2023-05-19T00:06:06.381Z,102978.09
2023-05-19T00:08:13.875Z,102979.84
2023-05-19T00:10:21.030Z,102977.22
2023-05-19T00:12:26.929Z,102973.75
2023-05-19T00:14:35.239Z,102977.22
2023-05-19T00:16:44.334Z,102967.59
2023-05-19T00:18:53.637Z,102967.59
2023-05-19T00:21:01.502Z,102963.22
2023-05-19T00:23:06.683Z,102966.75
2023-05-19T00:25:13.049Z,102975.47
2023-05-19T00:27:17.997Z,102977.22
2023-05-19T00:29:28.727Z,102969.34
2023-05-19T00:31:34.595Z,102977.22
2023-05-19T00:33:40.037Z,102969.34
2023-05-19T00:35:47.933Z,102977.22
2023-05-19T00:37:55.115Z,102972.81
2023-05-19T00:40:00.187Z,102981.56
2023-05-19T00:42:08.904Z,102976.31
2023-05-19T00:44:14.206Z,102974.56
2023-05-19T00:46:19.782Z,102973.72
2023-05-19T00:48:25.310Z,102978.06
2023-05-19T00:50:31.235Z,102978.91
2023-05-19T00:52:39.243Z,102979.81
2023-05-19T00:54:44.691Z,102972.78
2023-05-19T00:56:51.982Z,102974.53
2023-05-19T00:58:57.897Z,102970.19
2023-05-19T01:01:07.290Z,102967.56
2023-05-19T01:03:15.362Z,102965.78
2023-05-19T01:05:21.869Z,102966.66
2023-05-19T01:07:27.722Z,102964.03
2023-05-19T01:09:36.016Z,102969.25
2023-05-19T01:11:44.120Z,102960.50
2023-05-19T01:13:51.614Z,102965.78
2023-05-19T01:16:04.067Z,102965.72
2023-05-19T01:18:14.832Z,102968.34
2023-05-19T01:20:32.541Z,102960.47
2023-05-19T01:23:09.847Z,102957.84
2023-05-19T01:25:49.054Z,102957.81
2023-05-19T01:28:38.194Z,102949.94
2023-05-19T01:30:47.145Z,102951.69
2023-05-19T01:32:54.920Z,102956.94
2023-05-19T01:35:01.272Z,102952.56
2023-05-19T01:37:07.191Z,102957.81
2023-05-19T01:39:12.500Z,102953.44
2023-05-19T01:41:21.357Z,102961.28
2023-05-19T01:43:32.035Z,102951.63
2023-05-19T01:45:38.658Z,102949.88
2023-05-19T01:47:57.712Z,102949.00
2023-05-19T01:50:03.201Z,102948.13
2023-05-19T01:52:09.186Z,102949.00
2023-05-19T01:54:14.439Z,102953.38
2023-05-19T01:56:30.451Z,102945.53
2023-05-19T01:58:44.672Z,102942.88
2023-05-19T02:00:56.806Z,102938.50
2023-05-19T02:03:18.334Z,102930.69
2023-05-19T02:05:31.739Z,102924.56
2023-05-19T02:07:47.224Z,102922.78
2023-05-19T02:10:03.157Z,102923.63
2023-05-19T02:12:14.442Z,102934.09
2023-05-19T02:14:27.824Z,102924.50
2023-05-19T02:16:37.236Z,102924.47
2023-05-19T02:18:46.440Z,102928.88
2023-05-19T02:20:53.926Z,102934.06
2023-05-19T02:23:01.519Z,102928.84
2023-05-19T02:25:07.288Z,102927.97
2023-05-19T02:27:12.242Z,102924.47
2023-05-19T02:29:17.682Z,102930.56
2023-05-19T02:31:22.744Z,102931.47
2023-05-19T02:33:33.582Z,102923.56
2023-05-19T02:35:43.821Z,102927.06
2023-05-19T02:37:51.311Z,102925.25
2023-05-19T02:39:56.397Z,102925.25
2023-05-19T02:42:01.869Z,102924.38
2023-05-19T02:44:07.918Z,102926.94
2023-05-19T02:46:13.054Z,102926.03
2023-05-19T02:48:18.192Z,102918.13
2023-05-19T02:50:26.534Z,102918.13
2023-05-19T02:52:34.669Z,102922.53
2023-05-19T02:54:39.941Z,102914.69
2023-05-19T02:56:45.015Z,102911.19
2023-05-19T02:58:53.026Z,102915.53
2023-05-19T03:00:59.464Z,102915.53
2023-05-19T03:03:04.986Z,102913.78
2023-05-19T03:05:12.749Z,102915.50
2023-05-19T03:07:19.181Z,102913.78
2023-05-19T03:09:30.434Z,102906.78
2023-05-19T03:11:35.554Z,102910.25
2023-05-19T03:13:42.029Z,102908.53
2023-05-19T03:15:51.628Z,102905.88
2023-05-19T03:17:57.198Z,102903.31
2023-05-19T03:20:02.819Z,102904.16
2023-05-19T03:22:08.311Z,102909.41
2023-05-19T03:24:13.356Z,102905.88
2023-05-19T03:26:23.347Z,102905.88
2023-05-19T03:28:31.464Z,102903.25
2023-05-19T03:30:40.099Z,102895.38
2023-05-19T03:32:48.452Z,102893.56
2023-05-19T03:34:56.677Z,102896.19
2023-05-19T03:37:01.866Z,102895.31
2023-05-19T03:39:07.333Z,102893.53
2023-05-19T03:41:12.342Z,102895.28
2023-05-19T03:43:22.491Z,102894.41
2023-05-19T03:45:27.730Z,102894.34
2023-05-19T03:47:35.023Z,102897.88
2023-05-19T03:49:40.327Z,102901.34
2023-05-19T03:51:45.496Z,102899.59
2023-05-19T03:53:51.582Z,102901.34
2023-05-19T03:55:57.129Z,102903.97
2023-05-19T03:58:02.800Z,102908.34
2023-05-19T04:00:12.775Z,102907.47
2023-05-19T04:02:17.855Z,102905.75
2023-05-19T04:04:27.824Z,102909.22
2023-05-19T04:06:34.162Z,102906.63
2023-05-19T04:08:39.378Z,102899.66
2023-05-19T04:10:44.431Z,102905.78
2023-05-19T04:12:53.679Z,102907.59
2023-05-19T04:15:01.452Z,102900.63
2023-05-19T04:17:09.248Z,102905.91
2023-05-19T04:19:14.654Z,102903.28
2023-05-19T04:21:22.566Z,102913.75
2023-05-19T04:23:27.644Z,102913.78
2023-05-19T04:25:39.078Z,102915.50
2023-05-19T04:27:44.047Z,102914.69
2023-05-19T04:29:51.701Z,102918.19
2023-05-19T04:31:57.669Z,102921.69
2023-05-19T04:34:05.390Z,102919.03
2023-05-19T04:36:11.739Z,102921.72
2023-05-19T04:38:20.317Z,102921.75
2023-05-19T04:40:26.820Z,102916.53
2023-05-19T04:42:33.304Z,102921.78
2023-05-19T04:44:38.315Z,102913.06
2023-05-19T04:46:45.492Z,102913.97
2023-05-19T04:48:51.550Z,102912.25
2023-05-19T04:51:01.860Z,102916.69
2023-05-19T04:53:07.377Z,102912.34
2023-05-19T04:55:14.319Z,102921.13
2023-05-19T04:57:20.535Z,102923.75
2023-05-19T04:59:26.756Z,102923.81
2023-05-19T05:01:33.242Z,102927.38
2023-05-19T05:03:38.812Z,102923.03
2023-05-19T05:05:44.125Z,102923.91
2023-05-19T05:07:54.312Z,102918.66
2023-05-19T05:10:00.057Z,102928.28
2023-05-19T05:12:08.001Z,102924.75
2023-05-19T05:14:14.700Z,102922.09
2023-05-19T05:16:21.550Z,102929.94
2023-05-19T05:18:31.179Z,102926.34
2023-05-19T05:20:37.543Z,102929.00
2023-05-19T05:22:44.762Z,102924.56
2023-05-19T05:24:56.412Z,102923.56
2023-05-19T05:27:02.013Z,102927.00
2023-05-19T05:29:07.437Z,102930.44
2023-05-19T05:31:12.564Z,102921.56
2023-05-19T05:33:19.828Z,102931.25
2023-05-19T05:35:27.564Z,102938.22
2023-05-19T05:37:34.332Z,102936.47
2023-05-19T05:39:39.446Z,102936.44
2023-05-19T05:41:47.242Z,102932.78
2023-05-19T05:43:53.319Z,102929.16
2023-05-19T05:46:00.360Z,102929.94
2023-05-19T05:48:06.457Z,102924.59
2023-05-19T05:50:13.224Z,102931.63
2023-05-19T05:52:19.397Z,102926.22
2023-05-19T05:54:31.461Z,102928.72
2023-05-19T05:56:40.305Z,102929.41
2023-05-19T05:58:48.089Z,102929.19
2023-05-19T06:00:58.220Z,102920.88
2023-05-19T06:03:03.382Z,102912.41
2023-05-19T06:05:11.398Z,102919.53
2023-05-19T06:07:16.481Z,102927.19
2023-05-19T06:09:34.766Z,102917.78
2023-05-19T06:11:39.894Z,102923.72
2023-05-19T06:13:47.777Z,102922.25
2023-05-19T06:15:59.247Z,102924.53
2023-05-19T06:18:06.143Z,102921.97
2023-05-19T06:20:13.502Z,102918.41
2023-05-19T06:22:25.438Z,102921.97
2023-05-19T06:24:31.559Z,102913.81
2023-05-19T06:26:37.096Z,102915.47
2023-05-19T06:28:42.147Z,102915.38
2023-05-19T06:30:53.014Z,102916.88
2023-05-19T06:32:58.119Z,102923.81
2023-05-19T06:35:03.295Z,102921.69
2023-05-19T06:37:08.228Z,102928.28
2023-05-19T06:39:13.773Z,102927.06
2023-05-19T06:41:21.972Z,102917.72
2023-05-19T06:43:27.276Z,102919.25
2023-05-19T06:45:35.032Z,102916.06
2023-05-19T06:47:44.850Z,102923.75
2023-05-19T06:49:55.606Z,102926.31
2023-05-19T06:52:00.775Z,102920.28
2023-05-19T06:54:06.093Z,102918.25
2023-05-19T06:56:11.148Z,102920.69
2023-05-19T06:58:16.566Z,102924.03
2023-05-19T07:00:27.114Z,102924.63
2023-05-19T07:02:35.289Z,102921.75
2023-05-19T07:04:43.493Z,102919.19
2023-05-19T07:06:53.569Z,102923.41
2023-05-19T07:08:59.441Z,102919.88
2023-05-19T07:11:05.044Z,102925.19
2023-05-19T07:13:10.120Z,102917.50
2023-05-19T07:15:15.254Z,102914.72
2023-05-19T07:17:23.510Z,102916.31
2023-05-19T07:19:31.306Z,102909.41
2023-05-19T07:21:39.262Z,102914.53
2023-05-19T07:23:45.839Z,102922.81
2023-05-19T07:25:52.329Z,102922.69
2023-05-19T07:27:59.207Z,102911.59
2023-05-19T07:30:04.828Z,102914.91
2023-05-19T07:32:10.303Z,102911.94
2023-05-19T07:34:15.264Z,102905.44
2023-05-19T07:36:20.582Z,102910.63
2023-05-19T07:38:31.702Z,102909.56
2023-05-19T07:40:36.745Z,102899.34
2023-05-19T07:42:41.778Z,102897.16
2023-05-19T07:44:46.973Z,102903.25
2023-05-19T07:46:52.272Z,102893.03
2023-05-19T07:48:57.353Z,102900.94
2023-05-19T07:51:02.538Z,102899.00
2023-05-19T07:53:07.624Z,102899.47
2023-05-19T07:55:15.854Z,102899.31
2023-05-19T07:57:21.172Z,102893.75
2023-05-19T07:59:27.644Z,102890.34
2023-05-19T08:01:33.542Z,102900.59
2023-05-19T08:03:38.830Z,102889.00
2023-05-19T08:05:44.018Z,102884.97
2023-05-19T08:07:49.149Z,102886.69
2023-05-19T08:09:54.612Z,102889.31
2023-05-19T08:12:02.665Z,102889.78
2023-05-19T08:14:07.949Z,102892.09
2023-05-19T08:16:13.480Z,102880.34
2023-05-19T08:18:20.378Z,102881.13
2023-05-19T08:20:27.150Z,102879.97
2023-05-19T08:22:35.324Z,102872.50
2023-05-19T08:24:43.621Z,102878.38
2023-05-19T08:26:49.057Z,102875.69
2023-05-19T08:28:56.910Z,102868.66
2023-05-19T08:31:02.283Z,102865.84
2023-05-19T08:33:07.505Z,102860.16
2023-05-19T08:35:13.382Z,102862.47
2023-05-19T08:37:22.477Z,102867.16
2023-05-19T08:39:28.832Z,102857.16
2023-05-19T08:41:34.232Z,102859.00
2023-05-19T08:43:39.692Z,102858.59
2023-05-19T08:45:50.516Z,102857.56
2023-05-19T08:47:57.646Z,102852.31
2023-05-19T08:50:10.198Z,102848.97
2023-05-19T08:52:25.309Z,102849.69
2023-05-19T08:54:40.438Z,102841.88
2023-05-19T08:56:46.996Z,102839.06
2023-05-19T08:59:00.017Z,102832.66
2023-05-19T09:01:08.315Z,102833.91
2023-05-19T09:05:26.251Z,102836.78
2023-05-19T09:07:38.420Z,102838.78
2023-05-19T09:09:44.213Z,102839.75
2023-05-19T09:11:50.029Z,102833.28
2023-05-19T09:13:55.144Z,102842.09
2023-05-19T09:16:01.097Z,102839.19
2023-05-19T09:18:15.886Z,102834.81
2023-05-19T09:20:22.516Z,102835.56
2023-05-19T09:22:27.739Z,102828.69
2023-05-19T09:24:33.518Z,102832.31
2023-05-19T09:26:42.549Z,102836.59
2023-05-19T09:28:51.809Z,102829.00
2023-05-19T09:31:14.815Z,102834.78
2023-05-19T09:33:23.911Z,102839.66
2023-05-19T09:35:32.310Z,102835.56
2023-05-19T09:37:40.448Z,102829.16
2023-05-19T09:39:52.247Z,102831.72
2023-05-19T09:41:58.957Z,102826.59
2023-05-19T09:44:03.903Z,102826.28
2023-05-19T09:46:12.898Z,102840.06
2023-05-19T09:48:22.588Z,102838.28
2023-05-19T09:50:30.385Z,102828.97
2023-05-19T09:52:39.013Z,102830.97
2023-05-19T09:54:44.203Z,102828.16
2023-05-19T09:56:49.537Z,102819.69
2023-05-19T09:58:56.798Z,102834.16
2023-05-19T10:01:02.667Z,102824.44
2023-05-19T10:03:12.707Z,102828.63
2023-05-19T10:05:22.120Z,102824.81
2023-05-19T10:07:28.490Z,102823.03
2023-05-19T10:09:33.397Z,102816.53
2023-05-19T10:11:38.534Z,102822.34
2023-05-19T10:13:44.360Z,102821.91
2023-05-19T10:15:59.306Z,102828.34
2023-05-19T10:18:06.580Z,102826.84
2023-05-19T10:20:14.407Z,102828.69
2023-05-19T10:22:24.433Z,102820.31
2023-05-19T10:24:30.110Z,102833.19
2023-05-19T10:26:35.525Z,102818.00
2023-05-19T10:28:44.423Z,102817.28
2023-05-19T10:30:53.645Z,102811.75
2023-05-19T10:33:03.187Z,102803.41
2023-05-19T10:35:47.306Z,102806.16
2023-05-19T10:38:07.960Z,102813.66
2023-05-19T10:40:20.518Z,102807.56
2023-05-19T10:42:36.676Z,102802.91
2023-05-19T10:44:56.693Z,102796.06
2023-05-19T10:47:01.893Z,102799.78
2023-05-19T10:49:07.270Z,102797.63
2023-05-19T10:51:12.636Z,102799.09
2023-05-19T10:53:24.196Z,102799.38
2023-05-19T10:55:53.529Z,102803.06
2023-05-19T10:58:00.690Z,102795.13
2023-05-19T11:00:11.964Z,102794.38
2023-05-19T11:02:43.273Z,102792.16
2023-05-19T11:04:53.237Z,102790.75
2023-05-19T11:06:58.717Z,102792.34
2023-05-19T11:09:14.816Z,102789.78
2023-05-19T11:11:23.460Z,102774.34
2023-05-19T11:13:30.541Z,102788.53
2023-05-19T11:15:39.619Z,102784.59
2023-05-19T11:17:48.675Z,102778.66
2023-05-19T11:19:59.462Z,102780.38
2023-05-19T11:22:12.056Z,102789.16
2023-05-19T11:24:41.468Z,102786.75
2023-05-19T11:26:46.605Z,102782.16
2023-05-19T11:28:53.334Z,102778.56
2023-05-19T11:31:00.264Z,102786.59
2023-05-19T11:33:06.206Z,102782.88
2023-05-19T11:35:12.861Z,102777.75
2023-05-19T11:37:17.904Z,102775.03
2023-05-19T11:39:26.797Z,102775.53
2023-05-19T11:41:34.498Z,102777.59
2023-05-19T11:43:39.508Z,102774.66
2023-05-19T11:45:44.909Z,102775.97
2023-05-19T11:48:01.128Z,102771.09
2023-05-19T11:50:08.167Z,102770.84
2023-05-19T11:52:13.483Z,102765.59
2023-05-19T11:54:19.120Z,102771.09
2023-05-19T11:56:26.870Z,102764.47
2023-05-19T11:58:34.553Z,102770.31
2023-05-19T12:00:41.670Z,102766.59
2023-05-19T12:02:47.064Z,102760.06
2023-05-19T12:04:53.536Z,102766.19
2023-05-19T12:06:59.150Z,102754.13
2023-05-19T12:09:05.103Z,102763.09
2023-05-19T12:11:10.325Z,102756.69
2023-05-19T12:13:16.034Z,102762.81
2023-05-19T12:15:30.754Z,102760.94
2023-05-19T12:17:36.066Z,102760.59
2023-05-19T12:19:41.631Z,102754.22
2023-05-19T12:21:46.786Z,102746.91
2023-05-19T12:23:52.504Z,102743.34
2023-05-19T12:25:57.666Z,102742.09
2023-05-19T12:28:03.665Z,102731.88
2023-05-19T12:30:10.988Z,102746.59
2023-05-19T12:32:22.107Z,102740.09
2023-05-19T12:34:28.634Z,102740.50
2023-05-19T12:36:35.529Z,102746.91
2023-05-19T12:38:43.442Z,102732.78
2023-05-19T12:40:49.604Z,102732.53
2023-05-19T12:42:58.500Z,102731.28
2023-05-19T12:45:05.577Z,102731.41
2023-05-19T12:47:10.507Z,102740.03
2023-05-19T12:49:18.215Z,102719.66
2023-05-19T12:51:23.869Z,102732.84
2023-05-19T12:53:32.559Z,102740.19
2023-05-19T12:55:43.767Z,102724.59
2023-05-19T12:57:53.649Z,102731.50
2023-05-19T13:00:05.281Z,102723.25
2023-05-19T13:02:10.270Z,102736.38
2023-05-19T13:04:21.420Z,102724.06
2023-05-19T13:06:27.530Z,102715.19
2023-05-19T13:08:33.025Z,102708.34
2023-05-19T13:10:39.237Z,102716.31
2023-05-19T13:12:44.304Z,102712.94
2023-05-19T13:14:49.434Z,102707.41
2023-05-19T13:16:54.528Z,102708.75
2023-05-19T13:19:01.542Z,102713.38
2023-05-19T13:21:09.348Z,102712.97
2023-05-19T13:23:14.819Z,102706.56
2023-05-19T13:25:21.139Z,102704.25
2023-05-19T13:27:26.789Z,102702.34
2023-05-19T13:29:31.823Z,102704.06
2023-05-19T13:31:36.928Z,102704.72
2023-05-19T13:33:41.972Z,102704.34
2023-05-19T13:35:46.893Z,102701.53
2023-05-19T13:37:55.057Z,102698.97
2023-05-19T13:40:00.427Z,102698.84
2023-05-19T13:42:05.274Z,102701.81
2023-05-19T13:44:10.204Z,102698.38
2023-05-19T13:46:15.069Z,102697.91
2023-05-19T13:48:19.916Z,102697.34
2023-05-19T13:50:27.370Z,102700.03
2023-05-19T13:52:33.805Z,102684.91
2023-05-19T13:54:41.190Z,102688.06
2023-05-19T13:56:47.255Z,102680.66
2023-05-19T13:58:52.099Z,102680.97
2023-05-19T14:00:59.877Z,102684.91
2023-05-19T14:03:05.274Z,102687.38
2023-05-19T14:05:11.236Z,102691.53
2023-05-19T14:07:23.161Z,102689.22
2023-05-19T14:09:31.467Z,102680.41
2023-05-19T14:11:39.088Z,102669.13
2023-05-19T14:13:44.017Z,102678.03
2023-05-19T14:15:49.509Z,102677.72
2023-05-19T14:17:54.541Z,102675.72
2023-05-19T14:20:00.014Z,102674.22
2023-05-19T14:22:05.405Z,102678.72
2023-05-19T14:24:10.651Z,102676.78
2023-05-19T14:26:15.790Z,102669.31
2023-05-19T14:28:29.145Z,102665.78
2023-05-19T14:30:34.587Z,102654.84
2023-05-19T14:32:40.033Z,102665.69
2023-05-19T14:34:45.128Z,102664.31
2023-05-19T14:36:50.911Z,102664.53
2023-05-19T14:38:57.032Z,102670.09
2023-05-19T14:41:02.037Z,102661.44
2023-05-19T14:43:07.294Z,102669.22
2023-05-19T14:45:15.671Z,102669.13
2023-05-19T14:47:20.918Z,102653.44
2023-05-19T14:49:26.803Z,102661.81
2023-05-19T14:51:31.938Z,102667.75
2023-05-19T14:53:36.854Z,102666.25
2023-05-19T14:55:41.861Z,102662.00
2023-05-19T14:57:46.915Z,102661.56
2023-05-19T14:59:52.256Z,102662.31
2023-05-19T15:02:00.126Z,102660.41
2023-05-19T15:04:05.196Z,102665.97
2023-05-19T15:06:12.474Z,102663.09
2023-05-19T15:08:17.610Z,102655.75
2023-05-19T15:10:26.810Z,102657.06
2023-05-19T15:12:32.413Z,102658.59
2023-05-19T15:14:37.898Z,102648.34
2023-05-19T15:16:43.118Z,102653.25
2023-05-19T15:18:52.007Z,102648.34
2023-05-19T15:20:57.314Z,102646.84
2023-05-19T15:23:02.575Z,102640.84
2023-05-19T15:25:08.830Z,102643.41
2023-05-19T15:27:13.986Z,102645.88
2023-05-19T15:29:19.288Z,102645.66
2023-05-19T15:31:27.523Z,102646.72
2023-05-19T15:33:35.094Z,102643.47
2023-05-19T15:35:42.848Z,102647.50
2023-05-19T15:37:48.069Z,102641.56
2023-05-19T15:39:55.318Z,102638.50
2023-05-19T15:42:00.594Z,102639.94
2023-05-19T15:44:07.002Z,102640.41
2023-05-19T15:46:13.579Z,102642.13
2023-05-19T15:48:19.493Z,102639.75
2023-05-19T15:50:26.518Z,102635.56
2023-05-19T15:52:34.824Z,102643.19
2023-05-19T15:54:39.820Z,102629.88
2023-05-19T15:56:45.726Z,102637.22
2023-05-19T15:58:51.150Z,102637.91
2023-05-19T16:00:57.344Z,102640.59
2023-05-19T16:03:02.343Z,102637.41
2023-05-19T16:05:08.096Z,102637.66
2023-05-19T16:07:13.084Z,102636.88
2023-05-19T16:09:20.961Z,102628.56
2023-05-19T16:11:27.711Z,102622.78
2023-05-19T16:13:34.140Z,102624.25
2023-05-19T16:15:39.378Z,102628.13
2023-05-19T16:17:44.933Z,102623.53
2023-05-19T16:19:52.565Z,102621.81
2023-05-19T16:21:57.680Z,102617.00
2023-05-19T16:24:02.938Z,102610.69
2023-05-19T16:26:10.794Z,102616.97
2023-05-19T16:28:15.941Z,102617.41
2023-05-19T16:30:26.594Z,102619.16
2023-05-19T16:32:31.632Z,102613.84
2023-05-19T16:34:36.690Z,102614.72
2023-05-19T16:36:41.790Z,102608.44
2023-05-19T16:38:46.738Z,102618.25
2023-05-19T16:40:52.445Z,102620.22
2023-05-19T16:43:00.170Z,102611.69
2023-05-19T16:45:05.182Z,102607.81
2023-05-19T16:47:10.243Z,102611.97
2023-05-19T16:49:15.280Z,102607.66
2023-05-19T16:51:23.318Z,102613.59
2023-05-19T16:53:29.032Z,102602.25
2023-05-19T16:55:33.965Z,102597.91
2023-05-19T16:57:38.901Z,102604.72
2023-05-19T16:59:46.666Z,102603.94
2023-05-19T17:01:53.353Z,102611.38
2023-05-19T17:03:58.578Z,102606.31
2023-05-19T17:06:03.529Z,102603.88
2023-05-19T17:08:08.853Z,102612.34
2023-05-19T17:10:14.722Z,102613.00
2023-05-19T17:12:19.744Z,102614.88
2023-05-19T17:14:27.762Z,102616.84
2023-05-19T17:16:35.618Z,102618.16
2023-05-19T17:18:40.893Z,102615.69
2023-05-19T17:20:46.113Z,102611.59
2023-05-19T17:22:51.054Z,102604.00
2023-05-19T17:24:57.627Z,102612.22
2023-05-19T17:27:02.724Z,102613.53
2023-05-19T17:29:07.493Z,102613.81
2023-05-19T17:31:13.364Z,102615.84
2023-05-19T17:33:21.417Z,102618.34
2023-05-19T17:35:28.514Z,102616.75
2023-05-19T17:37:33.680Z,102615.69
2023-05-19T17:39:38.656Z,102614.25
2023-05-19T17:41:43.625Z,102610.88
2023-05-19T17:43:48.612Z,102625.06
2023-05-19T17:45:58.783Z,102618.22
2023-05-19T17:48:05.394Z,102622.47
2023-05-19T17:50:13.760Z,102624.75
2023-05-19T17:52:19.515Z,102621.53
2023-05-19T17:54:26.679Z,102626.13
2023-05-19T17:56:36.809Z,102626.91
2023-05-19T17:58:42.372Z,102622.44
2023-05-19T18:00:48.146Z,102627.25
2023-05-19T18:02:54.149Z,102629.13
2023-05-19T18:05:02.790Z,102626.38
2023-05-19T18:07:12.256Z,102622.19
2023-05-19T18:09:20.980Z,102629.69
2023-05-19T18:11:27.250Z,102625.22
2023-05-19T18:13:35.561Z,102627.03
2023-05-19T18:15:43.823Z,102625.31
2023-05-19T18:17:50.984Z,102631.94
2023-05-19T18:19:57.717Z,102633.09
2023-05-19T18:22:02.703Z,102639.13
2023-05-19T18:24:10.456Z,102638.78
2023-05-19T18:26:16.093Z,102637.13
2023-05-19T18:28:24.525Z,102635.31
2023-05-19T18:30:30.821Z,102641.50
2023-05-19T18:32:37.171Z,102642.66
2023-05-19T18:34:42.325Z,102635.06
2023-05-19T18:36:47.364Z,102642.31
2023-05-19T18:38:53.597Z,102637.19
2023-05-19T18:41:01.244Z,102643.25
2023-05-19T18:43:06.714Z,102648.81
2023-05-19T18:45:13.173Z,102650.22
2023-05-19T18:47:19.120Z,102642.22
2023-05-19T18:49:27.523Z,102645.25
2023-05-19T18:51:38.796Z,102651.69
2023-05-19T18:53:43.813Z,102659.09
2023-05-19T18:55:48.990Z,102651.91
2023-05-19T18:57:57.081Z,102655.63
2023-05-19T19:00:02.324Z,102658.88
2023-05-19T19:02:09.120Z,102660.09
2023-05-19T19:04:15.182Z,102658.84
2023-05-19T19:06:21.048Z,102672.28
2023-05-19T19:08:27.693Z,102667.72
2023-05-19T19:10:38.604Z,102667.38
2023-05-19T19:12:43.856Z,102672.91
2023-05-19T19:14:51.461Z,102675.50
2023-05-19T19:16:57.620Z,102673.09
2023-05-19T19:19:06.486Z,102670.56
2023-05-19T19:21:12.012Z,102669.94
2023-05-19T19:23:19.210Z,102671.94
2023-05-19T19:25:26.068Z,102671.09
2023-05-19T19:27:31.823Z,102672.09
2023-05-19T19:29:36.890Z,102675.88
2023-05-19T19:31:44.759Z,102677.63
2023-05-19T19:33:52.320Z,102681.34
2023-05-19T19:35:57.561Z,102683.56
2023-05-19T19:38:02.528Z,102692.69
2023-05-19T19:40:09.282Z,102685.97
2023-05-19T19:42:14.273Z,102688.91
2023-05-19T19:44:19.478Z,102692.47
2023-05-19T19:46:25.309Z,102698.81
2023-05-19T19:48:36.538Z,102704.28
2023-05-19T19:50:41.608Z,102694.78
2023-05-19T19:52:46.762Z,102699.16
2023-05-19T19:54:52.748Z,102702.00
2023-05-19T19:56:57.712Z,102699.38
2023-05-19T19:59:02.899Z,102699.44
2023-05-19T20:01:08.683Z,102704.84
2023-05-19T20:03:14.004Z,102704.03
2023-05-19T20:05:28.133Z,102699.03
2023-05-19T20:07:33.798Z,102701.88
2023-05-19T20:09:39.134Z,102708.38
2023-05-19T20:11:44.201Z,102700.44
2023-05-19T20:13:49.504Z,102709.97
2023-05-19T20:15:57.128Z,102700.53
2023-05-19T20:18:02.424Z,102705.75
2023-05-19T20:20:11.167Z,102715.47
2023-05-19T20:22:19.130Z,102717.47
2023-05-19T20:24:26.754Z,102710.47
2023-05-19T20:26:32.758Z,102720.31
2023-05-19T20:28:38.188Z,102723.06
2023-05-19T20:30:43.305Z,102724.19
2023-05-19T20:32:49.112Z,102728.63
2023-05-19T20:34:55.330Z,102726.06
2023-05-19T20:37:00.444Z,102734.09
2023-05-19T20:39:08.275Z,102725.34
2023-05-19T20:41:13.145Z,102733.19
2023-05-19T20:43:21.160Z,102726.47
2023-05-19T20:45:26.932Z,102735.25
2023-05-19T20:47:32.028Z,102727.66
2023-05-19T20:49:40.037Z,102740.88
2023-05-19T20:51:45.122Z,102738.19
2023-05-19T20:53:53.535Z,102734.84
2023-05-19T20:56:01.320Z,102733.91
2023-05-19T20:58:06.364Z,102734.97
2023-05-19T21:00:12.660Z,102728.78
2023-05-19T21:02:17.757Z,102731.63
2023-05-19T21:04:27.271Z,102733.41
2023-05-19T21:06:35.340Z,102733.41
2023-05-19T21:08:40.880Z,102737.13
2023-05-19T21:10:46.072Z,102732.78
2023-05-19T21:12:53.670Z,102732.00
2023-05-19T21:15:01.693Z,102734.47
2023-05-19T21:17:07.376Z,102732.84
2023-05-19T21:19:12.574Z,102737.34
2023-05-19T21:21:18.105Z,102742.75
2023-05-19T21:23:26.728Z,102736.50
2023-05-19T21:25:31.941Z,102735.66
2023-05-19T21:27:37.129Z,102739.25
2023-05-19T21:29:44.897Z,102748.00
2023-05-19T21:31:52.499Z,102740.97
2023-05-19T21:33:58.187Z,102741.97
2023-05-19T21:36:03.328Z,102741.97
2023-05-19T21:38:21.968Z,102739.31
2023-05-19T21:40:31.740Z,102744.09
2023-05-19T21:42:37.595Z,102752.19
2023-05-19T21:44:45.292Z,102746.06
2023-05-19T21:46:53.766Z,102745.16
2023-05-19T21:49:01.528Z,102749.56
2023-05-19T21:51:06.948Z,102747.78
2023-05-19T21:53:12.064Z,102742.56
2023-05-19T21:55:19.682Z,102745.06
2023-05-19T21:57:25.215Z,102746.03
2023-05-19T21:59:30.639Z,102745.22
2023-05-19T22:01:38.242Z,102744.44
2023-05-19T22:03:43.433Z,102742.56
2023-05-19T22:05:53.749Z,102747.94
2023-05-19T22:08:00.134Z,102742.66
2023-05-19T22:10:05.130Z,102753.38
2023-05-19T22:12:11.359Z,102741.94
2023-05-19T22:14:16.719Z,102742.03
2023-05-19T22:16:22.941Z,102745.59
2023-05-19T22:18:30.598Z,102745.53
2023-05-19T22:20:35.802Z,102745.47
2023-05-19T22:22:43.912Z,102752.66
2023-05-19T22:24:49.085Z,102742.13
2023-05-19T22:26:53.998Z,102752.69
2023-05-19T22:29:01.190Z,102741.41
2023-05-19T22:31:06.434Z,102749.31
2023-05-19T22:33:12.133Z,102749.25
2023-05-19T22:35:23.655Z,102753.63
2023-05-19T22:37:31.447Z,102749.31
2023-05-19T22:39:36.600Z,102751.09
2023-05-19T22:41:42.451Z,102756.38
2023-05-19T22:43:47.447Z,102757.31
2023-05-19T22:45:52.832Z,102751.19
2023-05-19T22:47:58.284Z,102754.75
2023-05-19T22:50:03.338Z,102759.16
2023-05-19T22:52:13.565Z,102762.75
2023-05-19T22:54:21.214Z,102760.19
2023-05-19T22:56:27.296Z,102755.84
2023-05-19T22:58:34.977Z,102757.66
2023-05-19T23:00:39.973Z,102761.25
2023-05-19T23:02:45.140Z,102760.31
2023-05-19T23:04:50.433Z,102764.66
2023-05-19T23:06:56.993Z,102764.66
2023-05-19T23:09:06.438Z,102765.69
2023-05-19T23:11:11.622Z,102761.38
2023-05-19T23:13:18.074Z,102759.63
2023-05-19T23:15:25.597Z,102756.97
2023-05-19T23:17:30.774Z,102761.47
2023-05-19T23:19:37.176Z,102755.41
2023-05-19T23:21:42.483Z,102752.81
2023-05-19T23:23:47.459Z,102751.13
2023-05-19T23:25:55.148Z,102754.66
2023-05-19T23:28:00.790Z,102752.03
2023-05-19T23:30:06.128Z,102755.63
2023-05-19T23:32:11.556Z,102751.28
2023-05-19T23:34:16.730Z,102749.59
2023-05-19T23:36:25.361Z,102749.59
2023-05-19T23:38:30.448Z,102754.88
2023-05-19T23:40:35.586Z,102746.19
2023-05-19T23:42:44.819Z,102758.63
2023-05-19T23:44:50.386Z,102754.28
2023-05-19T23:46:56.268Z,102753.44
2023-05-19T23:49:01.349Z,102748.16
2023-05-19T23:51:06.571Z,102748.28
2023-05-19T23:53:11.754Z,102745.66
2023-05-19T23:55:16.788Z,102747.56
2023-05-19T23:57:23.321Z,102749.28
2023-05-19T23:59:31.154Z,102747.69
